Time;durP1;ratioP1;P1;durP2;ratioP2;P2;SDS_P1;SDS_P2;PMS_P1;PMS_P2;Temp;Humidity;BMP_temperature;BMP_pressure;BME280_temperature;BME280_humidity;BME280_pressure;Samples;Min_cycle;Max_cycle;Signal;HPM_P1;HPM_P2
2023/04/13 00:00:14;;;;;;;6.78;0.65;;;;;;;;;;4970056;28;20384;-39
2023/04/13 00:02:40;;;;;;;0.40;0.40;;;;;;;;;;4968360;28;20104;-39
2023/04/13 00:05:08;;;;;;;3.95;0.60;;;;;;;;;;4968418;28;20089;-38
2023/04/13 00:07:33;;;;;;;0.25;0.25;;;;;;;;;;4965250;28;20027;-39
2023/04/13 00:10:02;;;;;;;1.08;0.43;;;;;;;;;;4967896;28;20027;-38
2023/04/13 00:12:27;;;;;;;1.80;0.70;;;;;;;;;;4968284;28;20542;-39
2023/04/13 00:14:53;;;;;;;1.25;0.50;;;;;;;;;;4967378;28;20035;-39
2023/04/13 00:17:18;;;;;;;1.52;0.55;;;;;;;;;;4967178;28;20513;-39
2023/04/13 00:19:46;;;;;;;1.13;0.50;;;;;;;;;;4968623;28;20097;-38
2023/04/13 00:22:13;;;;;;;2.10;0.75;;;;;;;;;;4965396;28;20045;-39
2023/04/13 00:24:38;;;;;;;1.02;0.52;;;;;;;;;;4966821;28;20026;-39
2023/04/13 00:27:03;;;;;;;2.28;0.50;;;;;;;;;;4967413;28;20502;-38
2023/04/13 00:29:29;;;;;;;1.52;0.52;;;;;;;;;;4968402;28;20037;-39
2023/04/13 00:31:55;;;;;;;0.57;0.47;;;;;;;;;;4964313;28;20047;-38
2023/04/13 00:34:21;;;;;;;2.60;0.80;;;;;;;;;;4966005;28;20662;-39
2023/04/13 00:36:47;;;;;;;1.85;0.85;;;;;;;;;;4968927;28;20039;-39
2023/04/13 00:39:14;;;;;;;0.70;0.50;;;;;;;;;;4968544;28;20043;-38
2023/04/13 00:41:40;;;;;;;0.68;0.50;;;;;;;;;;4968225;28;20058;-38
2023/04/13 00:44:07;;;;;;;3.75;0.80;;;;;;;;;;4967380;28;20471;-39
2023/04/13 00:46:33;;;;;;;0.57;0.57;;;;;;;;;;4967501;28;20049;-39
2023/04/13 00:49:00;;;;;;;1.17;0.75;;;;;;;;;;4968824;28;20031;-39
2023/04/13 00:51:26;;;;;;;1.17;0.68;;;;;;;;;;4967828;28;20133;-39
2023/04/13 00:53:52;;;;;;;0.45;0.40;;;;;;;;;;4965449;28;20125;-38
2023/04/13 00:56:17;;;;;;;1.77;0.65;;;;;;;;;;4962279;28;20043;-39
2023/04/13 00:58:44;;;;;;;3.22;0.68;;;;;;;;;;4966370;28;20030;-39
2023/04/13 01:01:09;;;;;;;1.17;0.50;;;;;;;;;;4963396;28;21338;-39
2023/04/13 01:03:35;;;;;;;1.08;0.63;;;;;;;;;;4961339;28;20126;-39
2023/04/13 01:06:10;;;;;;;2.00;0.73;;;;;;;;;;4963710;28;20062;-39
2023/04/13 01:08:44;;;;;;;0.88;0.77;;;;;;;;;;4965557;28;20074;-39
2023/04/13 01:11:20;;;;;;;1.23;0.60;;;;;;;;;;4963489;28;20038;-39
2023/04/13 01:13:54;;;;;;;1.30;0.55;;;;;;;;;;4966263;28;20038;-39
2023/04/13 01:16:24;;;;;;;5.57;0.70;;;;;;;;;;4967309;28;20480;-39
2023/04/13 01:18:52;;;;;;;0.50;0.50;;;;;;;;;;4965811;28;21924;-39
2023/04/13 01:21:23;;;;;;;0.90;0.50;;;;;;;;;;4965533;28;20039;-39
2023/04/13 01:23:51;;;;;;;2.70;0.70;;;;;;;;;;4963399;28;20070;-39
2023/04/13 01:26:16;;;;;;;2.35;0.68;;;;;;;;;;4964350;28;20043;-39
2023/04/13 01:28:42;;;;;;;0.68;0.60;;;;;;;;;;4968109;28;20042;-39
2023/04/13 01:31:10;;;;;;;1.83;0.80;;;;;;;;;;4963598;28;21216;-39
2023/04/13 01:33:40;;;;;;;1.23;0.60;;;;;;;;;;4966298;28;20046;-39
2023/04/13 01:36:07;;;;;;;5.60;0.98;;;;;;;;;;4963074;28;20138;-38
2023/04/13 01:38:34;;;;;;;0.80;0.60;;;;;;;;;;4966257;28;20488;-38
2023/04/13 01:40:59;;;;;;;2.28;0.90;;;;;;;;;;4966303;28;20047;-37
2023/04/13 01:43:26;;;;;;;2.53;0.60;;;;;;;;;;4967406;28;20057;-38
2023/04/13 01:46:03;;;;;;;4.95;0.90;;;;;;;;;;4965222;28;20410;-38
2023/04/13 01:48:43;;;;;;;3.38;0.93;;;;;;;;;;4965064;28;20042;-38
2023/04/13 01:51:15;;;;;;;3.38;0.80;;;;;;;;;;4960022;28;20050;-40
2023/04/13 01:53:43;;;;;;;2.35;0.60;;;;;;;;;;4964923;28;20045;-39
2023/04/13 01:56:11;;;;;;;6.70;1.00;;;;;;;;;;4965725;28;20058;-39
2023/04/13 01:58:39;;;;;;;3.28;1.67;;;;;;;;;;4964597;28;20021;-40
2023/04/13 02:01:06;;;;;;;4.95;0.80;;;;;;;;;;4963131;28;20507;-40
2023/04/13 02:03:33;;;;;;;6.30;1.02;;;;;;;;;;4965253;28;21512;-39
2023/04/13 02:06:00;;;;;;;1.02;0.60;;;;;;;;;;4961560;28;20047;-40
2023/04/13 02:08:25;;;;;;;0.65;0.50;;;;;;;;;;4959188;28;20037;-39
2023/04/13 02:10:51;;;;;;;1.20;0.63;;;;;;;;;;4963462;28;20042;-39
2023/04/13 02:13:16;;;;;;;0.85;0.82;;;;;;;;;;4967942;28;20045;-40
2023/04/13 02:15:42;;;;;;;2.05;0.80;;;;;;;;;;4966630;28;20166;-40
2023/04/13 02:18:07;;;;;;;3.00;0.55;;;;;;;;;;4966371;28;20019;-40
2023/04/13 02:20:44;;;;;;;1.70;0.40;;;;;;;;;;4957363;28;20132;-40
2023/04/13 02:23:13;;;;;;;1.40;0.63;;;;;;;;;;4945433;28;20111;-40
2023/04/13 02:25:40;;;;;;;0.98;0.60;;;;;;;;;;4949424;28;20395;-39
2023/04/13 02:28:07;;;;;;;1.55;0.70;;;;;;;;;;4961927;28;20058;-39
2023/04/13 02:30:32;;;;;;;0.85;0.70;;;;;;;;;;4959809;28;20059;-40
2023/04/13 02:32:57;;;;;;;1.13;0.60;;;;;;;;;;4945005;28;20065;-39
2023/04/13 02:35:24;;;;;;;4.28;0.90;;;;;;;;;;4948987;28;20042;-39
2023/04/13 02:37:50;;;;;;;2.42;0.70;;;;;;;;;;4964459;28;20027;-39
2023/04/13 02:40:15;;;;;;;8.60;0.95;;;;;;;;;;4960274;28;20081;-39
2023/04/13 02:42:41;;;;;;;0.88;0.40;;;;;;;;;;4963250;28;20076;-40
2023/04/13 02:45:11;;;;;;;1.58;0.70;;;;;;;;;;4960403;28;20127;-39
2023/04/13 02:47:37;;;;;;;1.00;0.73;;;;;;;;;;4966553;28;20029;-39
2023/04/13 02:50:03;;;;;;;3.15;0.80;;;;;;;;;;4966111;28;20041;-40
2023/04/13 02:52:29;;;;;;;3.55;0.80;;;;;;;;;;4963218;28;20043;-40
2023/04/13 02:54:55;;;;;;;6.28;0.80;;;;;;;;;;4966579;28;20057;-39
2023/04/13 02:57:21;;;;;;;2.10;0.90;;;;;;;;;;4964543;28;20047;-39
2023/04/13 02:59:47;;;;;;;3.00;0.73;;;;;;;;;;4964499;28;20065;-40
2023/04/13 03:02:13;;;;;;;3.85;0.80;;;;;;;;;;4963717;28;20042;-42
2023/04/13 03:04:38;;;;;;;2.97;0.85;;;;;;;;;;4964380;28;20396;-39
2023/04/13 03:07:06;;;;;;;3.20;0.90;;;;;;;;;;4966482;28;20034;-39
2023/04/13 03:09:32;;;;;;;4.70;1.10;;;;;;;;;;4962872;28;20023;-39
2023/04/13 03:11:57;;;;;;;0.90;0.60;;;;;;;;;;4961758;28;20043;-39
2023/04/13 03:14:23;;;;;;;1.58;1.00;;;;;;;;;;4958396;28;20023;-40
2023/04/13 03:16:48;;;;;;;0.85;0.75;;;;;;;;;;4961781;28;20051;-39
2023/04/13 03:19:15;;;;;;;2.00;0.77;;;;;;;;;;4966941;28;20058;-39
2023/04/13 03:21:41;;;;;;;2.03;0.80;;;;;;;;;;4965617;28;20039;-39
2023/04/13 03:24:07;;;;;;;2.22;0.98;;;;;;;;;;4963579;28;20018;-39
2023/04/13 03:26:32;;;;;;;2.92;0.88;;;;;;;;;;4963229;28;20046;-39
2023/04/13 03:28:58;;;;;;;2.92;0.90;;;;;;;;;;4958599;28;20033;-39
2023/04/13 03:31:24;;;;;;;2.28;0.70;;;;;;;;;;4963684;28;20507;-39
2023/04/13 03:33:50;;;;;;;5.28;1.05;;;;;;;;;;4961097;28;20376;-39
2023/04/13 03:36:15;;;;;;;2.28;0.73;;;;;;;;;;4963335;28;20046;-39
2023/04/13 03:38:41;;;;;;;1.55;0.65;;;;;;;;;;4962141;28;20404;-39
2023/04/13 03:41:06;;;;;;;4.90;1.35;;;;;;;;;;4963530;28;20392;-39
2023/04/13 03:43:32;;;;;;;1.42;0.93;;;;;;;;;;4967472;28;20042;-40
2023/04/13 03:45:57;;;;;;;2.67;0.85;;;;;;;;;;4965815;28;20451;-40
2023/04/13 03:48:22;;;;;;;6.00;1.30;;;;;;;;;;4963143;28;20641;-39
2023/04/13 03:50:48;;;;;;;2.67;0.90;;;;;;;;;;4962289;28;20061;-39
2023/04/13 03:53:13;;;;;;;0.73;0.60;;;;;;;;;;4962572;28;20027;-39
2023/04/13 03:55:39;;;;;;;1.58;0.77;;;;;;;;;;4960972;28;20411;-39
2023/04/13 03:58:04;;;;;;;2.28;0.90;;;;;;;;;;4969677;28;20022;-39
2023/04/13 04:00:30;;;;;;;5.43;1.02;;;;;;;;;;4964656;28;20044;-39
2023/04/13 04:02:55;;;;;;;3.97;0.82;;;;;;;;;;4965736;28;20039;-39
2023/04/13 04:05:21;;;;;;;3.17;0.93;;;;;;;;;;4970111;28;20046;-39
2023/04/13 04:07:46;;;;;;;5.35;1.10;;;;;;;;;;4966006;28;20059;-39
2023/04/13 04:10:11;;;;;;;3.55;1.13;;;;;;;;;;4966697;28;20151;-39
2023/04/13 04:12:37;;;;;;;3.00;0.85;;;;;;;;;;4970450;28;20053;-39
2023/04/13 04:15:04;;;;;;;2.15;0.90;;;;;;;;;;4968327;28;20706;-39
2023/04/13 04:17:29;;;;;;;4.47;0.98;;;;;;;;;;4963631;28;20050;-38
2023/04/13 04:19:55;;;;;;;1.42;0.90;;;;;;;;;;4965062;28;20034;-40
2023/04/13 04:22:21;;;;;;;2.28;0.90;;;;;;;;;;4967498;28;20129;-39
2023/04/13 04:24:46;;;;;;;3.05;0.70;;;;;;;;;;4967785;28;20027;-39
2023/04/13 04:27:13;;;;;;;1.83;0.90;;;;;;;;;;4965126;28;20177;-39
2023/04/13 04:29:38;;;;;;;1.65;0.90;;;;;;;;;;4965970;28;20042;-39
2023/04/13 04:32:04;;;;;;;5.55;1.33;;;;;;;;;;4970117;28;20038;-39
2023/04/13 04:34:30;;;;;;;6.13;1.30;;;;;;;;;;4967953;28;20468;-39
2023/04/13 04:36:56;;;;;;;8.48;1.00;;;;;;;;;;4967391;28;20043;-39
2023/04/13 04:39:22;;;;;;;2.88;1.10;;;;;;;;;;4966987;28;20502;-44
2023/04/13 04:42:01;;;;;;;6.18;1.10;;;;;;;;;;4968917;28;20031;-39
2023/04/13 04:44:29;;;;;;;2.15;0.80;;;;;;;;;;4964275;28;20114;-39
2023/04/13 04:46:58;;;;;;;4.05;0.77;;;;;;;;;;4968787;28;20038;-39
2023/04/13 04:49:26;;;;;;;2.22;1.20;;;;;;;;;;4964109;28;20022;-39
2023/04/13 04:51:53;;;;;;;5.22;1.30;;;;;;;;;;4967156;28;20415;-38
2023/04/13 04:54:19;;;;;;;2.03;0.95;;;;;;;;;;4968089;28;20031;-38
2023/04/13 04:56:49;;;;;;;3.55;1.20;;;;;;;;;;4961880;28;20070;-39
2023/04/13 04:59:14;;;;;;;1.70;0.90;;;;;;;;;;4965948;28;20031;-39
2023/04/13 05:01:41;;;;;;;3.03;1.00;;;;;;;;;;4967136;28;20039;-39
2023/04/13 05:04:07;;;;;;;3.63;1.10;;;;;;;;;;4961612;28;20030;-39
2023/04/13 05:06:33;;;;;;;2.00;0.95;;;;;;;;;;4965910;28;20053;-39
2023/04/13 05:09:00;;;;;;;3.00;1.00;;;;;;;;;;4968235;28;20037;-39
2023/04/13 05:11:28;;;;;;;1.23;0.75;;;;;;;;;;4966774;28;20135;-39
2023/04/13 05:13:57;;;;;;;5.72;1.10;;;;;;;;;;4964838;28;20030;-39
2023/04/13 05:16:23;;;;;;;2.33;1.00;;;;;;;;;;4968093;28;20058;-40
2023/04/13 05:18:49;;;;;;;1.95;1.20;;;;;;;;;;4968719;28;20056;-39
2023/04/13 05:21:15;;;;;;;3.05;1.15;;;;;;;;;;4957308;28;20166;-39
2023/04/13 05:23:42;;;;;;;3.65;1.10;;;;;;;;;;4946636;28;20523;-38
2023/04/13 05:26:11;;;;;;;3.80;1.00;;;;;;;;;;4944595;28;20050;-38
2023/04/13 05:28:37;;;;;;;2.22;0.88;;;;;;;;;;4949116;28;20110;-39
2023/04/13 05:31:05;;;;;;;5.65;2.00;;;;;;;;;;4945064;28;20301;-38
2023/04/13 05:33:31;;;;;;;2.63;0.90;;;;;;;;;;4943684;28;20561;-39
2023/04/13 05:35:57;;;;;;;5.40;1.50;;;;;;;;;;4948493;28;20043;-39
2023/04/13 05:38:23;;;;;;;4.65;0.82;;;;;;;;;;4947295;28;20020;-38
2023/04/13 05:40:48;;;;;;;2.92;1.02;;;;;;;;;;4944627;28;20054;-39
2023/04/13 05:43:14;;;;;;;4.60;1.50;;;;;;;;;;4945107;28;20060;-39
2023/04/13 05:45:39;;;;;;;2.60;0.82;;;;;;;;;;4942026;28;20042;-39
2023/04/13 05:48:05;;;;;;;4.35;1.02;;;;;;;;;;4948045;28;20031;-39
2023/04/13 05:50:30;;;;;;;2.38;0.88;;;;;;;;;;4943440;28;20043;-39
2023/04/13 05:52:56;;;;;;;1.42;0.85;;;;;;;;;;4941606;28;20122;-39
2023/04/13 05:55:22;;;;;;;2.53;1.23;;;;;;;;;;4943408;28;20492;-39
2023/04/13 05:57:48;;;;;;;3.08;0.90;;;;;;;;;;4946885;28;20037;-38
2023/04/13 06:00:16;;;;;;;2.58;0.80;;;;;;;;;;4954780;28;20031;-39
2023/04/13 06:02:41;;;;;;;1.23;0.95;;;;;;;;;;4966177;28;20464;-39
2023/04/13 06:05:07;;;;;;;6.70;1.20;;;;;;;;;;4962517;28;20043;-39
2023/04/13 06:07:34;;;;;;;3.17;0.65;;;;;;;;;;4960219;28;20062;-40
2023/04/13 06:10:00;;;;;;;3.47;1.25;;;;;;;;;;4961150;28;20086;-39
2023/04/13 06:12:26;;;;;;;1.63;0.80;;;;;;;;;;4957766;28;20042;-39
2023/04/13 06:14:52;;;;;;;2.88;0.80;;;;;;;;;;4961071;28;20035;-39
2023/04/13 06:17:17;;;;;;;1.80;0.90;;;;;;;;;;4962706;28;20061;-39
2023/04/13 06:19:43;;;;;;;3.53;0.60;;;;;;;;;;4961722;28;20081;-38
2023/04/13 06:22:08;;;;;;;2.90;0.93;;;;;;;;;;4962436;28;20034;-39
2023/04/13 06:24:33;;;;;;;6.35;1.45;;;;;;;;;;4968453;28;20069;-38
2023/04/13 06:26:59;;;;;;;2.78;0.93;;;;;;;;;;4963805;28;20043;-39
2023/04/13 06:29:24;;;;;;;3.20;0.70;;;;;;;;;;4977068;28;20566;-39
2023/04/13 06:31:49;;;;;;;4.20;0.82;;;;;;;;;;4961684;28;20038;-38
2023/04/13 06:34:15;;;;;;;3.58;0.98;;;;;;;;;;4965110;28;20448;-39
2023/04/13 06:36:40;;;;;;;1.65;0.75;;;;;;;;;;4963246;28;20044;-39
2023/04/13 06:39:08;;;;;;;2.65;0.80;;;;;;;;;;4962530;28;20047;-39
2023/04/13 06:41:33;;;;;;;4.47;0.85;;;;;;;;;;4962137;28;20034;-38
2023/04/13 06:43:59;;;;;;;4.07;0.68;;;;;;;;;;4961598;28;20038;-39
2023/04/13 06:46:24;;;;;;;4.40;0.95;;;;;;;;;;4961723;28;20034;-39
2023/04/13 06:48:50;;;;;;;6.53;0.93;;;;;;;;;;4961581;28;20046;-39
2023/04/13 06:51:15;;;;;;;2.00;0.90;;;;;;;;;;4960846;28;20460;-39
2023/04/13 06:53:40;;;;;;;1.00;0.75;;;;;;;;;;4963336;28;20061;-38
2023/04/13 06:56:07;;;;;;;3.13;0.75;;;;;;;;;;4966713;28;20046;-39
2023/04/13 06:58:32;;;;;;;5.00;1.40;;;;;;;;;;4961845;28;20085;-39
2023/04/13 07:00:57;;;;;;;1.98;0.93;;;;;;;;;;4965752;28;20044;-39
2023/04/13 07:03:23;;;;;;;5.10;1.08;;;;;;;;;;4966424;28;20418;-39
2023/04/13 07:05:48;;;;;;;7.10;1.20;;;;;;;;;;4958102;28;20038;-39
2023/04/13 07:08:14;;;;;;;2.90;0.98;;;;;;;;;;4963886;28;20065;-42
2023/04/13 07:10:39;;;;;;;6.07;1.40;;;;;;;;;;4966989;28;20458;-40
2023/04/13 07:13:06;;;;;;;3.58;1.05;;;;;;;;;;4964078;28;20039;-39
2023/04/13 07:15:31;;;;;;;3.50;1.30;;;;;;;;;;4963013;28;20065;-39
2023/04/13 07:17:57;;;;;;;4.05;1.23;;;;;;;;;;4964059;28;20026;-38
2023/04/13 07:20:22;;;;;;;2.97;1.10;;;;;;;;;;4966085;28;20395;-39
2023/04/13 07:22:47;;;;;;;5.95;1.40;;;;;;;;;;4966189;28;20499;-38
2023/04/13 07:25:13;;;;;;;1.17;1.00;;;;;;;;;;4965287;28;20034;-39
2023/04/13 07:27:39;;;;;;;8.30;1.20;;;;;;;;;;4967465;28;20379;-39
2023/04/13 07:30:07;;;;;;;5.70;0.95;;;;;;;;;;4964643;28;20050;-38
2023/04/13 07:32:33;;;;;;;6.13;1.38;;;;;;;;;;4967646;28;20071;-40
2023/04/13 07:35:00;;;;;;;1.42;1.08;;;;;;;;;;4968881;28;20554;-38
2023/04/13 07:37:26;;;;;;;1.55;0.90;;;;;;;;;;4964398;28;20051;-39
2023/04/13 07:39:51;;;;;;;3.25;0.90;;;;;;;;;;4971209;28;20046;-39
2023/04/13 07:42:17;;;;;;;1.45;0.85;;;;;;;;;;4970789;28;20053;-39
2023/04/13 07:44:42;;;;;;;3.45;0.93;;;;;;;;;;4965856;28;20042;-39
2023/04/13 07:47:07;;;;;;;6.13;1.20;;;;;;;;;;4968831;28;20047;-38
2023/04/13 07:49:36;;;;;;;2.33;0.95;;;;;;;;;;4970699;28;20488;-39
2023/04/13 07:52:02;;;;;;;2.08;1.65;;;;;;;;;;4969881;28;20050;-39
2023/04/13 07:54:27;;;;;;;4.13;1.45;;;;;;;;;;4968530;28;20450;-40
2023/04/13 07:56:55;;;;;;;2.88;1.10;;;;;;;;;;4967025;28;20051;-39
2023/04/13 07:59:20;;;;;;;6.10;1.30;;;;;;;;;;4968659;28;20085;-45
2023/04/13 08:01:46;;;;;;;4.60;1.73;;;;;;;;;;4968273;28;20042;-39
2023/04/13 08:04:11;;;;;;;1.13;0.98;;;;;;;;;;4967705;28;20049;-38
2023/04/13 08:06:37;;;;;;;4.28;0.90;;;;;;;;;;4961421;28;20050;-39
2023/04/13 08:09:02;;;;;;;1.85;1.00;;;;;;;;;;4967497;28;20042;-39
2023/04/13 08:11:28;;;;;;;4.80;1.73;;;;;;;;;;4968143;28;20031;-38
2023/04/13 08:13:53;;;;;;;2.67;1.13;;;;;;;;;;4968725;28;20109;-39
2023/04/13 08:16:18;;;;;;;5.45;1.17;;;;;;;;;;4963632;28;20444;-39
2023/04/13 08:18:44;;;;;;;2.25;0.93;;;;;;;;;;4969464;28;20043;-39
2023/04/13 08:21:10;;;;;;;8.07;1.05;;;;;;;;;;4958833;28;20528;-39
2023/04/13 08:23:39;;;;;;;3.28;1.40;;;;;;;;;;4947156;28;20041;-39
2023/04/13 08:26:05;;;;;;;6.97;0.85;;;;;;;;;;4957248;28;20039;-38
2023/04/13 08:28:31;;;;;;;7.90;1.02;;;;;;;;;;4965401;28;20046;-39
2023/04/13 08:30:56;;;;;;;2.13;1.17;;;;;;;;;;4965318;28;20043;-39
2023/04/13 08:33:21;;;;;;;4.57;1.02;;;;;;;;;;4966594;28;20035;-39
2023/04/13 08:35:47;;;;;;;6.68;1.13;;;;;;;;;;4968735;28;20051;-39
2023/04/13 08:38:12;;;;;;;3.67;1.20;;;;;;;;;;4964230;28;20034;-39
2023/04/13 08:40:39;;;;;;;3.15;0.98;;;;;;;;;;4969658;28;20050;-39
2023/04/13 08:43:06;;;;;;;2.20;0.80;;;;;;;;;;4966430;28;20066;-39
2023/04/13 08:45:31;;;;;;;4.38;1.08;;;;;;;;;;4965833;28;20412;-38
2023/04/13 08:47:57;;;;;;;2.38;0.90;;;;;;;;;;4963722;28;20033;-39
2023/04/13 08:50:24;;;;;;;1.05;0.60;;;;;;;;;;4959500;28;20049;-39
2023/04/13 08:52:50;;;;;;;8.20;0.90;;;;;;;;;;4969118;28;20034;-39
2023/04/13 08:55:16;;;;;;;8.82;1.30;;;;;;;;;;4966333;28;20031;-39
2023/04/13 08:57:46;;;;;;;4.45;0.70;;;;;;;;;;4966970;28;20038;-39
2023/04/13 09:00:15;;;;;;;3.25;0.90;;;;;;;;;;4964935;28;20092;-39
2023/04/13 09:02:46;;;;;;;1.92;0.93;;;;;;;;;;4967751;28;20066;-39
2023/04/13 09:05:19;;;;;;;5.05;1.05;;;;;;;;;;4968675;28;20105;-38
2023/04/13 09:07:50;;;;;;;4.45;0.90;;;;;;;;;;4965636;28;20038;-39
2023/04/13 09:10:16;;;;;;;3.17;0.90;;;;;;;;;;4967799;28;20169;-39
2023/04/13 09:12:42;;;;;;;3.58;1.02;;;;;;;;;;4968056;28;20475;-38
2023/04/13 09:15:10;;;;;;;1.95;1.17;;;;;;;;;;4965021;28;20038;-38
2023/04/13 09:17:36;;;;;;;4.55;1.15;;;;;;;;;;4968780;28;20557;-39
2023/04/13 09:20:21;;;;;;;2.85;0.77;;;;;;;;;;4961790;28;20031;-39
2023/04/13 09:22:51;;;;;;;1.67;0.50;;;;;;;;;;4967175;28;20094;-39
2023/04/13 09:25:24;;;;;;;1.95;0.75;;;;;;;;;;4965098;28;20031;-39
2023/04/13 09:27:51;;;;;;;3.03;1.02;;;;;;;;;;4959952;28;20035;-39
2023/04/13 09:30:24;;;;;;;1.92;1.00;;;;;;;;;;4964785;28;20037;-38
2023/04/13 09:33:03;;;;;;;1.17;0.70;;;;;;;;;;4964736;28;20127;-39
2023/04/13 09:35:30;;;;;;;2.83;1.10;;;;;;;;;;4967500;28;20061;-39
2023/04/13 09:37:56;;;;;;;1.10;1.02;;;;;;;;;;4967220;28;20023;-39
2023/04/13 09:40:21;;;;;;;2.13;1.05;;;;;;;;;;4965316;28;20025;-38
2023/04/13 09:43:00;;;;;;;1.85;0.75;;;;;;;;;;4964736;28;20061;-39
2023/04/13 09:45:43;;;;;;;3.30;0.70;;;;;;;;;;4967984;28;20043;-39
2023/04/13 09:48:17;;;;;;;6.07;0.77;;;;;;;;;;4963759;28;20047;-39
2023/04/13 09:50:43;;;;;;;0.77;0.68;;;;;;;;;;4965496;28;20058;-39
2023/04/13 09:53:09;;;;;;;4.15;0.95;;;;;;;;;;4966835;28;20023;-39
2023/04/13 09:55:36;;;;;;;3.22;0.80;;;;;;;;;;4962791;28;20050;-39
2023/04/13 09:58:11;;;;;;;4.70;1.00;;;;;;;;;;4961661;28;20139;-39
2023/04/13 10:00:37;;;;;;;1.33;0.60;;;;;;;;;;4966955;28;20530;-39
2023/04/13 10:03:07;;;;;;;1.90;0.60;;;;;;;;;;4969335;28;20580;-39
2023/04/13 10:05:33;;;;;;;2.47;0.70;;;;;;;;;;4962803;28;20042;-39
2023/04/13 10:08:00;;;;;;;3.67;0.75;;;;;;;;;;4964027;28;20030;-39
2023/04/13 10:10:25;;;;;;;2.28;1.02;;;;;;;;;;4978474;28;20039;-38
2023/04/13 10:12:55;;;;;;;1.63;0.60;;;;;;;;;;4964672;28;20062;-38
2023/04/13 10:15:29;;;;;;;1.20;0.98;;;;;;;;;;4963330;28;20109;-38
2023/04/13 10:18:20;;;;;;;1.95;1.02;;;;;;;;;;4964245;28;20189;-39
2023/04/13 10:20:47;;;;;;;1.15;0.90;;;;;;;;;;4964094;28;20116;-39
2023/04/13 10:23:13;;;;;;;2.15;0.90;;;;;;;;;;4964023;28;20058;-38
2023/04/13 10:25:51;;;;;;;2.30;1.00;;;;;;;;;;4962921;28;20058;-38
2023/04/13 10:28:17;;;;;;;2.70;1.20;;;;;;;;;;4961606;28;20122;-38
2023/04/13 10:30:52;;;;;;;3.03;0.98;;;;;;;;;;4967639;28;20126;-40
2023/04/13 10:33:19;;;;;;;3.53;0.98;;;;;;;;;;4965181;28;20035;-38
2023/04/13 10:35:56;;;;;;;1.10;0.63;;;;;;;;;;4963166;28;20062;-38
2023/04/13 10:38:21;;;;;;;4.13;0.85;;;;;;;;;;4964685;28;20035;-38
2023/04/13 10:40:47;;;;;;;1.70;1.23;;;;;;;;;;4965649;28;20042;-39
2023/04/13 10:43:25;;;;;;;10.90;1.40;;;;;;;;;;4962065;28;20038;-39
2023/04/13 10:46:03;;;;;;;3.22;0.82;;;;;;;;;;4963123;28;20042;-39
2023/04/13 10:48:28;;;;;;;2.03;0.73;;;;;;;;;;4967499;28;20045;-39
2023/04/13 10:50:58;;;;;;;1.13;1.02;;;;;;;;;;4964603;28;22202;-39
2023/04/13 10:53:24;;;;;;;1.27;0.90;;;;;;;;;;4961783;28;20066;-38
2023/04/13 10:55:49;;;;;;;2.92;0.80;;;;;;;;;;4963974;28;20550;-39
2023/04/13 10:58:18;;;;;;;2.17;0.70;;;;;;;;;;4965771;28;20041;-39
2023/04/13 11:00:45;;;;;;;4.57;0.90;;;;;;;;;;4964071;28;20395;-39
2023/04/13 11:03:11;;;;;;;2.17;1.17;;;;;;;;;;4964636;28;20062;-39
2023/04/13 11:05:37;;;;;;;1.88;1.35;;;;;;;;;;4967632;28;20042;-38
2023/04/13 11:08:03;;;;;;;1.70;0.90;;;;;;;;;;4970858;28;20031;-38
2023/04/13 11:10:29;;;;;;;1.17;0.95;;;;;;;;;;4969893;28;20042;-39
2023/04/13 11:12:56;;;;;;;11.85;0.82;;;;;;;;;;4967638;28;20558;-38
2023/04/13 11:15:23;;;;;;;2.63;1.13;;;;;;;;;;4971108;28;20035;-39
2023/04/13 11:17:56;;;;;;;7.35;0.82;;;;;;;;;;4967716;28;20019;-39
2023/04/13 11:20:33;;;;;;;0.90;0.60;;;;;;;;;;4965628;28;20023;-39
2023/04/13 11:23:01;;;;;;;1.30;0.70;;;;;;;;;;4969876;28;20379;-39
2023/04/13 11:25:27;;;;;;;6.47;0.80;;;;;;;;;;4968443;28;20047;-39
2023/04/13 11:27:57;;;;;;;5.47;0.90;;;;;;;;;;4969115;28;20030;-39
2023/04/13 11:30:24;;;;;;;0.90;0.50;;;;;;;;;;4964712;28;20050;-39
2023/04/13 11:32:52;;;;;;;1.35;0.50;;;;;;;;;;4948976;28;20034;-39
2023/04/13 11:35:18;;;;;;;9.93;0.90;;;;;;;;;;4951724;28;20374;-39
2023/04/13 11:37:49;;;;;;;1.65;0.88;;;;;;;;;;4969248;28;20041;-39
2023/04/13 11:40:19;;;;;;;2.72;1.50;;;;;;;;;;4965380;28;20110;-39
2023/04/13 11:42:46;;;;;;;3.15;0.82;;;;;;;;;;4971356;28;20035;-39
2023/04/13 11:45:15;;;;;;;2.15;0.93;;;;;;;;;;4963222;28;20472;-42
2023/04/13 11:47:44;;;;;;;2.42;0.90;;;;;;;;;;4962301;28;20034;-39
2023/04/13 11:50:11;;;;;;;4.45;0.75;;;;;;;;;;4963250;28;20024;-39
2023/04/13 11:52:38;;;;;;;2.67;1.05;;;;;;;;;;4964366;28;20042;-39
2023/04/13 11:55:05;;;;;;;1.67;0.63;;;;;;;;;;4964762;28;20082;-39
2023/04/13 11:57:33;;;;;;;2.38;0.68;;;;;;;;;;4971571;28;20023;-38
2023/04/13 11:59:59;;;;;;;1.45;0.75;;;;;;;;;;4966148;28;20027;-38
2023/04/13 12:02:30;;;;;;;2.00;0.82;;;;;;;;;;4968089;28;20098;-39
2023/04/13 12:04:56;;;;;;;1.38;0.77;;;;;;;;;;4969306;28;20542;-38
2023/04/13 12:07:23;;;;;;;2.30;0.68;;;;;;;;;;4965172;28;20408;-39
2023/04/13 12:09:52;;;;;;;4.15;0.57;;;;;;;;;;4966089;28;20061;-38
2023/04/13 12:12:23;;;;;;;1.85;0.90;;;;;;;;;;4970050;28;20101;-39
2023/04/13 12:14:59;;;;;;;5.43;0.95;;;;;;;;;;4968190;28;20158;-39
2023/04/13 12:17:32;;;;;;;3.67;0.80;;;;;;;;;;4967104;28;20038;-39
2023/04/13 12:19:58;;;;;;;5.20;1.00;;;;;;;;;;4966034;28;20030;-38
2023/04/13 12:22:38;;;;;;;6.72;0.75;;;;;;;;;;4947571;28;20043;-38
2023/04/13 12:25:14;;;;;;;1.33;0.63;;;;;;;;;;4948350;28;20110;-38
2023/04/13 12:27:40;;;;;;;0.85;0.77;;;;;;;;;;4950329;29;20055;-39
2023/04/13 12:30:11;;;;;;;2.05;0.82;;;;;;;;;;4946846;28;20716;-38
2023/04/13 12:32:43;;;;;;;2.63;0.70;;;;;;;;;;4945961;29;20373;-38
2023/04/13 12:35:09;;;;;;;2.72;1.45;;;;;;;;;;4948877;28;20074;-39
2023/04/13 12:37:41;;;;;;;2.97;0.80;;;;;;;;;;4947775;28;20413;-39
2023/04/13 12:40:13;;;;;;;1.05;0.68;;;;;;;;;;4942912;28;20042;-38
2023/04/13 12:42:39;;;;;;;1.75;0.65;;;;;;;;;;4943296;28;20026;-39
2023/04/13 12:45:05;;;;;;;1.40;0.88;;;;;;;;;;4948884;28;20488;-37
2023/04/13 12:47:31;;;;;;;0.88;0.80;;;;;;;;;;4947082;28;21042;-38
2023/04/13 12:49:56;;;;;;;0.60;0.40;;;;;;;;;;4947101;28;20082;-39
2023/04/13 12:52:22;;;;;;;2.00;1.50;;;;;;;;;;4948524;28;20074;-38
2023/04/13 12:54:47;;;;;;;3.15;1.00;;;;;;;;;;4945492;28;20054;-39
2023/04/13 12:57:16;;;;;;;1.65;0.95;;;;;;;;;;4962422;28;20436;-39
2023/04/13 12:59:42;;;;;;;3.42;0.70;;;;;;;;;;4966290;28;20245;-39
2023/04/13 13:02:07;;;;;;;3.95;0.50;;;;;;;;;;4967128;28;20077;-39
2023/04/13 13:04:33;;;;;;;2.95;1.08;;;;;;;;;;4963386;28;20047;-39
2023/04/13 13:06:59;;;;;;;2.35;1.27;;;;;;;;;;4966885;28;20826;-38
2023/04/13 13:09:25;;;;;;;2.65;0.77;;;;;;;;;;4967271;28;20035;-39
2023/04/13 13:11:50;;;;;;;1.52;0.90;;;;;;;;;;4968093;28;20396;-39
2023/04/13 13:14:16;;;;;;;1.05;0.73;;;;;;;;;;4969882;28;20078;-38
2023/04/13 13:16:41;;;;;;;1.25;0.57;;;;;;;;;;4966997;28;20035;-39
2023/04/13 13:19:07;;;;;;;0.90;0.50;;;;;;;;;;4966404;28;20701;-39
2023/04/13 13:21:32;;;;;;;2.25;0.55;;;;;;;;;;4961904;28;20035;-39
2023/04/13 13:23:58;;;;;;;1.38;0.70;;;;;;;;;;4965834;28;20389;-39
2023/04/13 13:26:23;;;;;;;1.67;0.68;;;;;;;;;;4960879;28;20122;-39
2023/04/13 13:28:50;;;;;;;0.70;0.70;;;;;;;;;;4970425;28;20030;-39
2023/04/13 13:31:16;;;;;;;1.45;0.60;;;;;;;;;;4963125;28;20407;-41
2023/04/13 13:33:41;;;;;;;1.17;0.75;;;;;;;;;;4963646;28;20027;-39
2023/04/13 13:36:06;;;;;;;3.35;0.95;;;;;;;;;;4968427;28;20130;-40
2023/04/13 13:38:32;;;;;;;2.25;0.75;;;;;;;;;;4961780;28;20081;-39
2023/04/13 13:40:57;;;;;;;2.38;1.00;;;;;;;;;;4960495;28;20401;-39
2023/04/13 13:43:23;;;;;;;0.70;0.70;;;;;;;;;;4968119;28;20029;-39
2023/04/13 13:45:48;;;;;;;1.10;0.50;;;;;;;;;;4963842;28;20493;-39
2023/04/13 13:48:13;;;;;;;1.45;0.55;;;;;;;;;;4969532;28;20064;-39
2023/04/13 13:50:39;;;;;;;3.92;0.50;;;;;;;;;;4966119;28;20066;-39
2023/04/13 13:53:04;;;;;;;1.85;0.60;;;;;;;;;;4965532;28;20038;-38
2023/04/13 13:55:30;;;;;;;2.28;0.90;;;;;;;;;;4964845;28;20047;-39
2023/04/13 13:57:56;;;;;;;0.85;0.60;;;;;;;;;;4964095;28;20037;-39
2023/04/13 14:00:21;;;;;;;2.38;0.70;;;;;;;;;;4964485;28;20031;-39
2023/04/13 14:02:46;;;;;;;0.90;0.70;;;;;;;;;;4965468;28;20182;-39
2023/04/13 14:05:12;;;;;;;2.05;0.80;;;;;;;;;;4961102;28;20043;-38
2023/04/13 14:07:44;;;;;;;8.13;1.33;;;;;;;;;;4963215;28;20428;-39
2023/04/13 14:10:11;;;;;;;2.83;1.15;;;;;;;;;;4964037;28;20031;-38
2023/04/13 14:12:44;;;;;;;2.85;0.75;;;;;;;;;;4962196;28;20510;-39
2023/04/13 14:15:11;;;;;;;0.70;0.50;;;;;;;;;;4964112;28;20043;-39
2023/04/13 14:17:37;;;;;;;1.73;1.23;;;;;;;;;;4948207;28;20039;-39
2023/04/13 14:20:07;;;;;;;2.00;0.70;;;;;;;;;;4944346;28;20031;-38
2023/04/13 14:22:33;;;;;;;2.70;1.23;;;;;;;;;;4963877;28;20050;-39
2023/04/13 14:24:59;;;;;;;8.93;1.70;;;;;;;;;;4962361;28;20431;-39
2023/04/13 14:27:24;;;;;;;0.75;0.75;;;;;;;;;;4965205;28;20822;-39
2023/04/13 14:29:50;;;;;;;5.65;1.15;;;;;;;;;;4964363;28;20035;-38
2023/04/13 14:32:15;;;;;;;2.70;0.75;;;;;;;;;;4959537;28;20043;-39
2023/04/13 14:34:44;;;;;;;1.77;1.10;;;;;;;;;;4966234;28;20037;-38
2023/04/13 14:37:12;;;;;;;3.55;1.10;;;;;;;;;;4963205;28;20049;-39
2023/04/13 14:39:38;;;;;;;1.70;0.93;;;;;;;;;;4965452;28;20039;-39
2023/04/13 14:42:03;;;;;;;8.48;1.45;;;;;;;;;;4964177;28;20054;-38